Meteo Giornale » Osservazioni meteo Messico » Mexico City-Licenci

ore: 03:45 - Osservazioni Meteo Mexico City-Licenci
Lat. 19° 26' N Lon. 99° 6' W Alt. 2238 metri s.l.m.

coperto America/Mexico_City

18 °C

Coperto

Temp. 24 Ore

16 °C

28 °C

Ovest

11.1 Km/h

Dew point 10 °C

Umidità 59 %

Visibilità  13 Km

Il sole sorge alle ore 06:57

Il sole tramonta alle ore 20:17

Data e Ora Cielo e Fenomeni T °C DP °C Um. % Pres. hPa Vis. km Vento km/h
Oggi h: 03:45 coperto Coperto 18 10 59 1026 13 O 11.1
Oggi h: 02:45 coperto Coperto 18 10 59 1026 14 N/NE 11.1
Oggi h: 01:43 molto_nuvoloso Molto Nuvoloso 19 9 52 1026 13 N/NO 14.8
Oggi h: 00:45 molto_nuvoloso Molto Nuvoloso 20 10 52 1027 14 N 14.8
Ieri h: 23:45 molto_nuvoloso Molto Nuvoloso 21 10 49 1027 10 N/NE 18.5
Ieri h: 22:45 molto_nuvoloso Molto Nuvoloso 21 10 49 1026 10 N/NE 14.8
Ieri h: 21:45 molto_nuvoloso Molto Nuvoloso 22 10 46 1026 10 NE 22.2
Ieri h: 20:51 molto_nuvoloso Molto Nuvoloso 22 9 43 1025 14 SE 27.8
Ieri h: 20:05 molto_nuvoloso Molto Nuvoloso 23 11 46 1023 14 E/SE 22.2
Ieri h: 19:50 molto_nuvoloso Molto Nuvoloso 25 8 33 1023 14 E/NE 22.2
Ieri h: 19:35 molto_nuvoloso Molto Nuvoloso 26 8 31 1022 14 E/NE 33.3
Ieri h: 18:52 molto_nuvoloso Molto Nuvoloso 28 3 20 1022 13 N/NE 25.9
Ieri h: 17:45 molto_nuvoloso Molto Nuvoloso 28 3 20 1021 13 NO 14.8
Ieri h: 16:44 molto_nuvoloso Molto Nuvoloso 28 5 23 1022 13 N/NE 22.2
Ieri h: 15:48 nuvoloso Nuvoloso 28 3 20 1023 13 N 22.2
Ieri h: 14:50 nuvoloso Nuvoloso 27 3 21 1024 13 E 11.1
Ieri h: 13:45 nuvoloso Nuvoloso 26 2 20 1025 11 E/NE 22.2
Ieri h: 13:36 nuvoloso Nuvoloso 26 4 24 1025 11 N/NE 13
Ieri h: 12:45 nuvoloso Nuvoloso 24 6 31 1025 11 NE 14.8
Ieri h: 11:45 nuvoloso Nuvoloso 23 8 38 1026 11 N 0
Ieri h: 10:45 nuvoloso Nuvoloso 22 12 53 1026 10 NE 7.4
Ieri h: 09:45 nuvoloso Nuvoloso 20 12 59 1026 10 N 0
Ieri h: 08:45 nuvoloso Nuvoloso 18 13 72 1026 8 E/NE 7.4
Ieri h: 07:48 molto_nuvoloso Molto Nuvoloso 18 13 72 1025 8 N 9.3
Ieri h: 06:50 molto_nuvoloso Molto Nuvoloso 17 13 77 1025 8 N 7.4
Ieri h: 05:42 molto_nuvoloso Molto Nuvoloso 16 13 82 1025 11 E/NE 7.4
Ieri h: 04:41 nuvoloso Nuvoloso 17 13 77 1025 11 N 3.7